createdAt,value
2023-02-24T00:02:00.386Z,7.30
2023-02-24T00:04:30.232Z,7.30
2023-02-24T00:06:57.371Z,7.30
2023-02-24T00:09:26.609Z,7.30
2023-02-24T00:12:05.592Z,7.30
2023-02-24T00:14:38.126Z,7.30
2023-02-24T00:17:08.301Z,7.20
2023-02-24T00:19:36.217Z,7.20
2023-02-24T00:22:05.396Z,7.20
2023-02-24T00:24:32.778Z,7.20
2023-02-24T00:27:01.729Z,7.20
2023-02-24T00:29:30.513Z,7.20
2023-02-24T00:32:03.833Z,7.20
2023-02-24T00:34:33.928Z,7.20
2023-02-24T00:37:01.530Z,7.20
2023-02-24T00:39:35.255Z,7.20
2023-02-24T00:42:05.058Z,7.20
2023-02-24T00:44:46.135Z,7.20
2023-02-24T00:47:16.408Z,7.30
2023-02-24T00:49:44.749Z,7.30
2023-02-24T00:52:14.238Z,7.30
2023-02-24T00:54:42.520Z,7.30
2023-02-24T00:57:09.982Z,7.30
2023-02-24T00:59:38.272Z,7.30
2023-02-24T01:02:07.333Z,7.30
2023-02-24T01:04:34.905Z,7.30
2023-02-24T01:07:02.125Z,7.30
2023-02-24T01:09:31.377Z,7.30
2023-02-24T01:12:22.316Z,7.30
2023-02-24T01:14:51.695Z,7.30
2023-02-24T01:17:20.539Z,7.30
2023-02-24T01:19:49.550Z,7.30
2023-02-24T01:22:18.972Z,7.30
2023-02-24T01:24:46.329Z,7.40
2023-02-24T01:27:14.736Z,7.40
2023-02-24T01:29:41.710Z,7.40
2023-02-24T01:32:13.682Z,7.40
2023-02-24T01:34:42.576Z,7.40
2023-02-24T01:37:10.219Z,7.40
2023-02-24T01:39:37.445Z,7.40
2023-02-24T01:42:06.531Z,7.30
2023-02-24T01:44:33.423Z,7.30
2023-02-24T01:47:04.105Z,7.30
2023-02-24T01:49:39.052Z,7.30
2023-02-24T01:52:14.745Z,7.30
2023-02-24T01:54:52.127Z,7.30
2023-02-24T01:57:23.829Z,7.30
2023-02-24T01:59:54.107Z,7.30
2023-02-24T02:02:23.440Z,7.30
2023-02-24T02:04:57.400Z,7.30
2023-02-24T02:07:26.939Z,7.30
2023-02-24T02:09:56.192Z,7.30
2023-02-24T02:12:24.394Z,7.30
2023-02-24T02:14:54.935Z,7.20
2023-02-24T02:17:21.873Z,7.20
2023-02-24T02:19:58.085Z,7.20
2023-02-24T02:22:46.146Z,7.20
2023-02-24T02:25:19.079Z,7.20
2023-02-24T02:28:04.062Z,7.20
2023-02-24T02:30:32.175Z,7.10
2023-02-24T02:33:21.609Z,7.20
2023-02-24T02:36:17.421Z,7.10
2023-02-24T02:38:59.351Z,7.20
2023-02-24T02:41:48.556Z,7.20
2023-02-24T02:44:59.936Z,7.20
2023-02-24T02:47:35.072Z,7.20
2023-02-24T02:50:09.236Z,7.20
2023-02-24T02:52:43.998Z,7.20
2023-02-24T02:55:18.976Z,7.20
2023-02-24T02:57:49.389Z,7.20
2023-02-24T03:00:29.368Z,7.20
2023-02-24T03:03:06.324Z,7.20
2023-02-24T03:05:49.674Z,7.20
2023-02-24T03:08:23.204Z,7.20
2023-02-24T03:10:52.338Z,7.20
2023-02-24T03:13:25.862Z,7.20
2023-02-24T03:15:53.895Z,7.20
2023-02-24T03:18:32.303Z,7.20
2023-02-24T03:21:45.623Z,7.20
2023-02-24T03:24:15.550Z,7.20
2023-02-24T03:26:50.228Z,7.20
2023-02-24T03:29:33.468Z,7.20
2023-02-24T03:32:22.064Z,7.20
2023-02-24T03:34:59.508Z,7.20
2023-02-24T03:37:30.002Z,7.20
2023-02-24T03:40:14.757Z,7.10
2023-02-24T03:42:46.212Z,7.20
2023-02-24T03:45:13.663Z,7.10
2023-02-24T03:47:41.687Z,7.00
2023-02-24T03:50:15.480Z,7.10
2023-02-24T03:53:18.104Z,7.00
2023-02-24T03:56:01.040Z,7.00
2023-02-24T03:58:46.243Z,7.00
2023-02-24T04:01:25.559Z,6.90
2023-02-24T04:03:58.311Z,6.90
2023-02-24T04:06:56.229Z,6.90
2023-02-24T04:10:09.551Z,6.90
2023-02-24T04:12:47.198Z,6.90
2023-02-24T04:15:29.733Z,6.90
2023-02-24T04:18:03.309Z,6.90
2023-02-24T04:20:34.290Z,6.90
2023-02-24T04:23:08.973Z,6.90
2023-02-24T04:25:37.038Z,6.90
2023-02-24T04:28:08.117Z,6.80
2023-02-24T04:30:39.149Z,6.80
2023-02-24T04:33:06.264Z,6.80
2023-02-24T04:35:34.216Z,6.80
2023-02-24T04:38:01.241Z,6.80
2023-02-24T04:40:28.192Z,6.80
2023-02-24T04:42:55.355Z,6.80
2023-02-24T04:45:30.733Z,6.80
2023-02-24T04:48:02.338Z,6.80
2023-02-24T04:50:36.915Z,6.80
2023-02-24T04:53:10.797Z,6.80
2023-02-24T04:55:40.593Z,6.90
2023-02-24T04:58:11.946Z,6.90
2023-02-24T05:00:41.667Z,6.90
2023-02-24T05:03:11.657Z,6.90
2023-02-24T05:05:38.735Z,6.80
2023-02-24T05:08:07.223Z,6.80
2023-02-24T05:10:38.740Z,6.80
2023-02-24T05:13:09.439Z,6.80
2023-02-24T05:15:40.774Z,6.80
2023-02-24T05:18:11.233Z,6.80
2023-02-24T05:21:00.809Z,6.80
2023-02-24T05:23:39.362Z,6.80
2023-02-24T05:26:10.660Z,6.90
2023-02-24T05:28:40.833Z,6.80
2023-02-24T05:31:11.951Z,6.80
2023-02-24T05:33:39.584Z,6.80
2023-02-24T05:36:08.856Z,6.80
2023-02-24T05:38:38.332Z,6.80
2023-02-24T05:41:18.677Z,6.80
2023-02-24T05:43:48.314Z,6.80
2023-02-24T05:46:16.570Z,6.80
2023-02-24T05:48:44.115Z,6.80
2023-02-24T05:51:12.504Z,6.80
2023-02-24T05:53:43.305Z,6.80
2023-02-24T05:56:11.002Z,6.80
2023-02-24T05:58:45.048Z,6.80
2023-02-24T06:01:16.516Z,6.80
2023-02-24T06:03:48.160Z,6.80
2023-02-24T06:06:16.781Z,6.80
2023-02-24T06:08:50.768Z,6.80
2023-02-24T06:11:19.912Z,6.80
2023-02-24T06:13:50.547Z,6.90
2023-02-24T06:16:18.925Z,6.80
2023-02-24T06:18:50.154Z,6.80
2023-02-24T06:21:17.374Z,6.70
2023-02-24T06:23:45.520Z,6.80
2023-02-24T06:26:19.604Z,6.60
2023-02-24T06:28:48.106Z,6.60
2023-02-24T06:31:15.232Z,6.50
2023-02-24T06:33:42.506Z,6.60
2023-02-24T06:36:09.702Z,6.60
2023-02-24T06:38:37.611Z,6.60
2023-02-24T06:41:10.970Z,6.60
2023-02-24T06:43:43.434Z,6.60
2023-02-24T06:46:12.982Z,6.70
2023-02-24T06:48:40.144Z,6.70
2023-02-24T06:51:19.928Z,6.70
2023-02-24T06:53:47.051Z,6.70
2023-02-24T06:56:18.182Z,6.70
2023-02-24T06:58:47.281Z,6.70
2023-02-24T07:01:25.912Z,6.70
2023-02-24T07:04:14.240Z,6.80
2023-02-24T07:06:43.070Z,6.80
2023-02-24T07:09:13.189Z,6.80
2023-02-24T07:11:42.621Z,6.90
2023-02-24T07:14:11.474Z,6.90
2023-02-24T07:16:45.810Z,7.00
2023-02-24T07:19:15.601Z,7.00
2023-02-24T07:21:46.791Z,7.00
2023-02-24T07:24:24.785Z,7.10
2023-02-24T07:27:00.749Z,7.10
2023-02-24T07:29:29.914Z,7.20
2023-02-24T07:32:01.793Z,7.20
2023-02-24T07:34:29.508Z,7.30
2023-02-24T07:36:57.567Z,7.30
2023-02-24T07:39:25.691Z,7.30
2023-02-24T07:41:57.283Z,7.30
2023-02-24T07:44:24.598Z,7.40
2023-02-24T07:46:52.057Z,7.40
2023-02-24T07:49:26.057Z,7.50
2023-02-24T07:51:57.820Z,7.50
2023-02-24T07:54:30.059Z,7.60
2023-02-24T07:56:59.483Z,7.60
2023-02-24T07:59:34.082Z,7.70
2023-02-24T08:02:04.973Z,7.70
2023-02-24T08:04:39.746Z,7.70
2023-02-24T08:07:14.396Z,7.70
2023-02-24T08:09:41.705Z,7.70
2023-02-24T08:12:08.718Z,7.80
2023-02-24T08:14:44.511Z,7.80
2023-02-24T08:17:16.639Z,7.80
2023-02-24T08:19:43.508Z,7.90
2023-02-24T08:22:19.827Z,7.90
2023-02-24T08:25:00.747Z,8.00
2023-02-24T08:27:32.541Z,8.00
2023-02-24T08:30:04.015Z,8.00
2023-02-24T08:32:43.545Z,8.00
2023-02-24T08:35:15.570Z,8.00
2023-02-24T08:37:47.128Z,8.10
2023-02-24T08:40:33.028Z,8.20
2023-02-24T08:43:24.496Z,8.40
2023-02-24T08:46:13.385Z,8.50
2023-02-24T08:48:42.597Z,8.70
2023-02-24T08:51:28.742Z,8.80
2023-02-24T08:54:15.646Z,8.80
2023-02-24T08:56:56.175Z,8.70
2023-02-24T08:59:50.029Z,8.70
2023-02-24T09:02:24.603Z,8.60
2023-02-24T09:04:56.914Z,8.50
2023-02-24T09:07:30.301Z,8.40
2023-02-24T09:10:00.312Z,8.30
2023-02-24T09:12:29.512Z,8.30
2023-02-24T09:15:07.657Z,8.40
2023-02-24T09:17:41.001Z,8.50
2023-02-24T09:20:27.661Z,8.50
2023-02-24T09:23:07.617Z,8.60
2023-02-24T09:25:44.978Z,8.70
2023-02-24T09:28:17.755Z,8.80
2023-02-24T09:30:53.487Z,8.90
2023-02-24T09:33:24.207Z,8.90
2023-02-24T09:35:52.967Z,9.00
2023-02-24T09:38:46.726Z,9.00
2023-02-24T09:41:46.835Z,8.90
2023-02-24T09:44:19.796Z,8.80
2023-02-24T09:47:37.739Z,8.70
2023-02-24T09:50:40.383Z,8.60
2023-02-24T09:53:17.561Z,8.50
2023-02-24T09:56:04.036Z,8.40
2023-02-24T09:58:51.096Z,8.40
2023-02-24T10:01:42.955Z,8.40
2023-02-24T10:04:49.400Z,8.50
2023-02-24T10:07:22.853Z,8.70
2023-02-24T10:09:55.875Z,8.90
2023-02-24T10:12:40.218Z,9.00
2023-02-24T10:15:21.096Z,9.10
2023-02-24T10:18:00.047Z,9.10
2023-02-24T10:20:44.724Z,9.10
2023-02-24T10:23:29.779Z,9.10
2023-02-24T10:26:07.356Z,9.10
2023-02-24T10:28:59.517Z,9.10
2023-02-24T10:31:46.132Z,9.00
2023-02-24T10:34:27.446Z,9.00
2023-02-24T10:36:57.618Z,9.00
2023-02-24T10:39:26.223Z,9.00
2023-02-24T10:41:59.157Z,9.10
2023-02-24T10:44:36.558Z,9.20
2023-02-24T10:47:11.890Z,9.20
2023-02-24T10:49:59.483Z,9.30
2023-02-24T10:52:56.893Z,9.50
2023-02-24T10:55:44.039Z,9.60
2023-02-24T10:58:28.457Z,9.60
2023-02-24T11:01:07.675Z,9.60
2023-02-24T11:03:46.191Z,9.50
2023-02-24T11:06:40.598Z,9.50
2023-02-24T11:09:28.324Z,9.60
2023-02-24T11:12:24.345Z,9.80
2023-02-24T11:15:13.529Z,9.90
2023-02-24T11:17:58.905Z,10.10
2023-02-24T11:20:49.305Z,10.10
2023-02-24T11:23:24.810Z,10.10
2023-02-24T11:25:58.380Z,10.20
2023-02-24T11:28:47.744Z,10.30
2023-02-24T11:31:39.402Z,10.40
2023-02-24T11:34:36.603Z,10.30
2023-02-24T11:37:32.359Z,10.10
2023-02-24T11:40:11.774Z,9.90
2023-02-24T11:42:59.006Z,9.80
2023-02-24T11:45:35.645Z,9.80
2023-02-24T11:48:27.548Z,9.60
2023-02-24T11:51:15.416Z,9.40
2023-02-24T11:54:05.925Z,9.20
2023-02-24T11:56:50.318Z,9.10
2023-02-24T11:59:17.848Z,9.00
2023-02-24T12:02:21.568Z,9.00
2023-02-24T12:04:54.296Z,9.00
2023-02-24T12:07:39.137Z,9.00
2023-02-24T12:10:29.095Z,9.10
2023-02-24T12:13:11.224Z,9.10
2023-02-24T12:15:56.815Z,8.90
2023-02-24T12:18:30.680Z,8.80
2023-02-24T12:21:06.863Z,8.80
2023-02-24T12:23:43.888Z,8.70
2023-02-24T12:26:39.897Z,8.70
2023-02-24T12:29:24.869Z,8.70
2023-02-24T12:32:30.545Z,8.70
2023-02-24T12:35:11.907Z,8.70
2023-02-24T12:37:51.223Z,8.70
2023-02-24T12:40:47.045Z,8.80
2023-02-24T12:43:35.663Z,8.90
2023-02-24T12:46:14.960Z,9.00
2023-02-24T12:49:04.746Z,9.20
2023-02-24T12:51:52.312Z,9.30
2023-02-24T12:54:51.358Z,9.40
2023-02-24T12:57:43.327Z,9.60
2023-02-24T13:00:18.300Z,9.80
2023-02-24T13:03:00.854Z,10.10
2023-02-24T13:05:37.602Z,10.20
2023-02-24T13:08:40.100Z,10.20
2023-02-24T13:11:42.638Z,9.90
2023-02-24T13:14:25.116Z,9.70
2023-02-24T13:17:02.734Z,9.60
2023-02-24T13:19:30.836Z,9.60
2023-02-24T13:22:07.338Z,9.70
2023-02-24T13:24:35.013Z,9.90
2023-02-24T13:27:15.044Z,10.00
2023-02-24T13:29:50.722Z,10.40
2023-02-24T13:32:39.306Z,10.90
2023-02-24T13:35:26.633Z,11.30
2023-02-24T13:37:54.509Z,11.40
2023-02-24T13:40:27.309Z,11.10
2023-02-24T13:43:00.050Z,10.80
2023-02-24T13:45:39.935Z,10.30
2023-02-24T13:48:37.147Z,10.20
2023-02-24T13:51:18.753Z,10.20
2023-02-24T13:54:07.474Z,10.60
2023-02-24T13:56:55.588Z,10.70
2023-02-24T13:59:43.793Z,10.70
2023-02-24T14:02:17.618Z,10.60
2023-02-24T14:04:56.798Z,10.50
2023-02-24T14:07:29.650Z,10.40
2023-02-24T14:10:31.481Z,10.50
2023-02-24T14:13:15.005Z,10.70
2023-02-24T14:15:44.892Z,10.70
2023-02-24T14:18:25.361Z,10.60
2023-02-24T14:20:53.674Z,10.60
2023-02-24T14:23:25.332Z,10.60
2023-02-24T14:26:00.639Z,10.60
2023-02-24T14:28:37.009Z,10.60
2023-02-24T14:31:15.785Z,10.50
2023-02-24T14:33:45.038Z,10.30
2023-02-24T14:36:23.890Z,10.20
2023-02-24T14:39:22.101Z,9.90
2023-02-24T14:41:51.319Z,9.70
2023-02-24T14:44:30.110Z,9.50
2023-02-24T14:46:59.504Z,9.20
2023-02-24T14:49:31.950Z,9.10
2023-02-24T14:52:25.669Z,8.90
2023-02-24T14:55:17.653Z,8.90
2023-02-24T14:58:06.956Z,8.80
2023-02-24T15:00:37.826Z,8.70
2023-02-24T15:03:12.688Z,8.80
2023-02-24T15:05:44.631Z,8.80
2023-02-24T15:08:25.678Z,8.80
2023-02-24T15:10:53.116Z,8.80
2023-02-24T15:13:28.421Z,8.80
2023-02-24T15:15:57.106Z,8.70
2023-02-24T15:18:29.252Z,8.70
2023-02-24T15:21:18.519Z,8.70
2023-02-24T15:23:47.755Z,8.70
2023-02-24T15:26:29.677Z,8.80
2023-02-24T15:29:02.079Z,8.80
2023-02-24T15:31:29.799Z,8.90
2023-02-24T15:34:02.334Z,9.00
2023-02-24T15:36:33.721Z,9.00
2023-02-24T15:39:05.573Z,9.00
2023-02-24T15:41:43.054Z,8.90
2023-02-24T15:44:30.436Z,8.90
2023-02-24T15:46:59.502Z,8.80
2023-02-24T15:49:26.777Z,8.80
2023-02-24T15:51:54.775Z,8.80
2023-02-24T15:54:35.241Z,8.70
2023-02-24T15:57:03.220Z,8.70
2023-02-24T15:59:30.284Z,8.70
2023-02-24T16:01:57.540Z,8.60
2023-02-24T16:04:26.953Z,8.60
2023-02-24T16:06:56.585Z,8.50
2023-02-24T16:09:36.791Z,8.50
2023-02-24T16:12:10.974Z,8.40
2023-02-24T16:14:38.829Z,8.40
2023-02-24T16:17:10.854Z,8.40
2023-02-24T16:19:38.051Z,8.40
2023-02-24T16:22:05.064Z,8.30
2023-02-24T16:24:32.213Z,8.30
2023-02-24T16:26:59.151Z,8.20
2023-02-24T16:29:26.469Z,8.20
2023-02-24T16:31:53.718Z,8.20
2023-02-24T16:34:20.904Z,8.10
2023-02-24T16:36:48.371Z,8.10
2023-02-24T16:39:15.310Z,8.10
2023-02-24T16:41:42.266Z,8.00
2023-02-24T16:44:10.670Z,8.00
2023-02-24T16:46:41.271Z,8.00
2023-02-24T16:49:13.054Z,7.90
2023-02-24T16:51:40.660Z,7.90
2023-02-24T16:54:08.440Z,7.80
2023-02-24T16:56:35.488Z,7.80
2023-02-24T16:59:02.458Z,7.60
2023-02-24T17:01:29.495Z,7.60
2023-02-24T17:03:56.757Z,7.60
2023-02-24T17:06:25.082Z,7.50
2023-02-24T17:08:52.577Z,7.60
2023-02-24T17:11:21.891Z,7.60
2023-02-24T17:13:48.828Z,7.60
2023-02-24T17:16:15.839Z,7.70
2023-02-24T17:18:42.813Z,7.70
2023-02-24T17:21:14.653Z,7.70
2023-02-24T17:23:42.698Z,7.70
2023-02-24T17:26:13.939Z,7.70
2023-02-24T17:28:41.119Z,7.70
2023-02-24T17:31:08.148Z,7.70
2023-02-24T17:33:35.209Z,7.60
2023-02-24T17:36:02.257Z,7.70
2023-02-24T17:38:31.775Z,7.60
2023-02-24T17:40:58.994Z,7.60
2023-02-24T17:43:26.094Z,7.60
2023-02-24T17:45:53.875Z,7.60
2023-02-24T17:48:21.783Z,7.50
2023-02-24T17:50:49.328Z,7.60
2023-02-24T17:53:16.443Z,7.60
2023-02-24T17:55:59.960Z,7.60
2023-02-24T17:58:29.085Z,7.50
2023-02-24T18:00:56.306Z,7.50
2023-02-24T18:03:23.522Z,7.50
2023-02-24T18:05:59.260Z,7.60
2023-02-24T18:08:26.236Z,7.50
2023-02-24T18:10:53.346Z,7.50
2023-02-24T18:13:20.292Z,7.50
2023-02-24T18:15:47.246Z,7.50
2023-02-24T18:18:14.278Z,7.60
2023-02-24T18:20:45.522Z,7.50
2023-02-24T18:23:13.014Z,7.50
2023-02-24T18:25:40.045Z,7.50
2023-02-24T18:28:07.311Z,7.50
2023-02-24T18:30:34.917Z,7.50
2023-02-24T18:33:04.488Z,7.50
2023-02-24T18:35:31.572Z,7.40
2023-02-24T18:37:58.537Z,7.40
2023-02-24T18:40:29.696Z,7.40
2023-02-24T18:42:56.883Z,7.30
2023-02-24T18:45:24.171Z,7.30
2023-02-24T18:47:52.947Z,7.30
2023-02-24T18:50:20.759Z,7.40
2023-02-24T18:52:47.810Z,7.40
2023-02-24T18:55:14.696Z,7.40
2023-02-24T18:57:41.762Z,7.40
2023-02-24T19:00:13.219Z,7.40
2023-02-24T19:02:41.063Z,7.40
2023-02-24T19:05:08.716Z,7.30
2023-02-24T19:07:35.732Z,7.30
2023-02-24T19:10:02.686Z,7.30
2023-02-24T19:12:29.695Z,7.30
2023-02-24T19:14:56.804Z,7.30
2023-02-24T19:17:23.803Z,7.30
2023-02-24T19:19:50.774Z,7.10
2023-02-24T19:22:17.772Z,7.10
2023-02-24T19:24:44.731Z,7.00
2023-02-24T19:27:11.743Z,6.90
2023-02-24T19:29:38.693Z,6.80
2023-02-24T19:32:05.903Z,6.70
2023-02-24T19:34:32.959Z,6.60
2023-02-24T19:36:59.958Z,6.60
2023-02-24T19:39:26.888Z,6.50
2023-02-24T19:41:54.881Z,6.50
2023-02-24T19:44:21.833Z,6.50
2023-02-24T19:46:48.898Z,6.40
2023-02-24T19:49:15.932Z,6.40
2023-02-24T19:51:43.686Z,6.30
2023-02-24T19:54:12.495Z,6.20
2023-02-24T19:56:39.619Z,6.20
2023-02-24T19:59:11.493Z,6.20
2023-02-24T20:01:38.500Z,6.20
2023-02-24T20:04:05.952Z,6.20
2023-02-24T20:06:36.228Z,6.20
2023-02-24T20:09:07.186Z,6.20
2023-02-24T20:11:40.181Z,6.20
2023-02-24T20:14:08.841Z,6.20
2023-02-24T20:16:38.013Z,6.20
2023-02-24T20:19:07.112Z,6.20
2023-02-24T20:21:34.315Z,6.20
2023-02-24T20:24:05.932Z,6.20
2023-02-24T20:26:33.320Z,6.20
2023-02-24T20:29:00.971Z,6.10
2023-02-24T20:31:28.698Z,6.10
2023-02-24T20:33:56.569Z,6.10
2023-02-24T20:36:26.450Z,6.00
2023-02-24T20:38:54.349Z,5.80
2023-02-24T20:41:22.336Z,5.70
2023-02-24T20:43:49.784Z,5.50
2023-02-24T20:46:25.214Z,5.30
2023-02-24T20:48:56.092Z,5.30
2023-02-24T20:51:23.824Z,5.20
2023-02-24T20:53:57.833Z,5.20
2023-02-24T20:56:29.437Z,5.00
2023-02-24T20:59:17.368Z,5.00
2023-02-24T21:01:47.282Z,4.90
2023-02-24T21:04:15.411Z,4.90
2023-02-24T21:06:43.126Z,4.80
2023-02-24T21:09:12.074Z,4.80
2023-02-24T21:11:39.389Z,4.70
2023-02-24T21:14:07.217Z,4.60
2023-02-24T21:16:37.207Z,4.60
2023-02-24T21:19:04.303Z,4.50
2023-02-24T21:21:31.238Z,4.50
2023-02-24T21:23:58.188Z,4.40
2023-02-24T21:26:27.096Z,4.40
2023-02-24T21:28:57.608Z,4.40
2023-02-24T21:31:26.191Z,4.30
2023-02-24T21:33:54.522Z,4.40
2023-02-24T21:36:25.749Z,4.40
2023-02-24T21:38:53.697Z,4.30
2023-02-24T21:41:21.418Z,4.30
2023-02-24T21:43:52.466Z,4.30
2023-02-24T21:46:19.451Z,4.30
2023-02-24T21:48:46.854Z,4.30
2023-02-24T21:51:13.983Z,4.30
2023-02-24T21:53:43.827Z,4.20
2023-02-24T21:56:21.801Z,4.20
2023-02-24T21:59:00.394Z,4.20
2023-02-24T22:01:30.582Z,4.10
2023-02-24T22:04:00.032Z,4.10
2023-02-24T22:06:31.271Z,4.10
2023-02-24T22:08:59.327Z,4.10
2023-02-24T22:11:26.399Z,4.10
2023-02-24T22:13:53.365Z,4.10
2023-02-24T22:16:22.897Z,4.10
2023-02-24T22:18:52.170Z,4.10
2023-02-24T22:21:22.129Z,4.10
2023-02-24T22:23:52.303Z,4.20
2023-02-24T22:26:22.978Z,4.20
2023-02-24T22:28:50.168Z,4.20
2023-02-24T22:31:20.620Z,4.20
2023-02-24T22:33:48.936Z,4.20
2023-02-24T22:36:19.296Z,4.20
2023-02-24T22:38:46.598Z,4.20
2023-02-24T22:41:21.615Z,4.20
2023-02-24T22:43:48.816Z,4.20
2023-02-24T22:46:22.209Z,4.10
2023-02-24T22:48:50.477Z,4.10
2023-02-24T22:51:18.262Z,4.10
2023-02-24T22:53:49.025Z,4.00
2023-02-24T22:56:18.698Z,4.00
2023-02-24T22:58:46.214Z,4.00
2023-02-24T23:01:19.499Z,4.00
2023-02-24T23:03:46.649Z,4.00
2023-02-24T23:06:17.232Z,4.00
2023-02-24T23:08:46.588Z,3.90
2023-02-24T23:11:18.461Z,3.90
2023-02-24T23:13:47.884Z,3.90
2023-02-24T23:16:18.676Z,3.90
2023-02-24T23:18:50.892Z,3.90
2023-02-24T23:21:26.568Z,3.80
2023-02-24T23:23:56.981Z,3.80
2023-02-24T23:26:33.409Z,3.90
2023-02-24T23:29:00.805Z,3.80
2023-02-24T23:31:28.028Z,3.90
2023-02-24T23:33:55.592Z,3.80
2023-02-24T23:36:24.053Z,3.80
2023-02-24T23:38:51.868Z,3.80
2023-02-24T23:41:18.801Z,3.80
2023-02-24T23:43:46.040Z,3.80
2023-02-24T23:46:13.730Z,3.70
2023-02-24T23:48:41.156Z,3.70
2023-02-24T23:51:14.137Z,3.70
2023-02-24T23:53:43.078Z,3.70
2023-02-24T23:56:14.484Z,3.70
2023-02-24T23:58:41.564Z,3.70
